sensor_id;sensor_type;location;lat;lon;timestamp;pressure;altitude;pressure_sealevel;temperature;humidity
69842;BME280;57138;51.326;-0.068;2023-05-02T00:00:12;100406.66;;;10.97;74.38
69842;BME280;57138;51.326;-0.068;2023-05-02T00:02:37;100407.03;;;10.94;74.26
69842;BME280;57138;51.326;-0.068;2023-05-02T00:05:04;100409.06;;;10.92;74.31
69842;BME280;57138;51.326;-0.068;2023-05-02T00:07:30;100407.97;;;10.86;74.98
69842;BME280;57138;51.326;-0.068;2023-05-02T00:09:55;100414.13;;;10.87;74.77
69842;BME280;57138;51.326;-0.068;2023-05-02T00:12:21;100410.47;;;10.88;74.84
69842;BME280;57138;51.326;-0.068;2023-05-02T00:14:47;100412.09;;;10.89;74.82
69842;BME280;57138;51.326;-0.068;2023-05-02T00:17:16;100409.59;;;10.87;74.86
69842;BME280;57138;51.326;-0.068;2023-05-02T00:19:42;100407.13;;;10.86;75.14
69842;BME280;57138;51.326;-0.068;2023-05-02T00:22:08;100402.13;;;10.83;74.95
69842;BME280;57138;51.326;-0.068;2023-05-02T00:24:33;100418.84;;;10.85;75.35
69842;BME280;57138;51.326;-0.068;2023-05-02T00:26:58;100414.06;;;10.80;75.01
69842;BME280;57138;51.326;-0.068;2023-05-02T00:29:25;100411.63;;;10.70;75.37
69842;BME280;57138;51.326;-0.068;2023-05-02T00:31:51;100407.31;;;10.69;75.64
69842;BME280;57138;51.326;-0.068;2023-05-02T00:34:16;100398.63;;;10.67;75.67
69842;BME280;57138;51.326;-0.068;2023-05-02T00:36:42;100401.31;;;10.67;75.74
69842;BME280;57138;51.326;-0.068;2023-05-02T00:39:07;100408.50;;;10.67;75.73
69842;BME280;57138;51.326;-0.068;2023-05-02T00:41:33;100394.03;;;10.61;75.52
69842;BME280;57138;51.326;-0.068;2023-05-02T00:43:59;100394.56;;;10.56;75.95
69842;BME280;57138;51.326;-0.068;2023-05-02T00:46:25;100409.16;;;10.54;75.69
69842;BME280;57138;51.326;-0.068;2023-05-02T00:48:50;100406.22;;;10.49;75.71
69842;BME280;57138;51.326;-0.068;2023-05-02T00:51:16;100409.91;;;10.48;75.97
69842;BME280;57138;51.326;-0.068;2023-05-02T00:53:43;100412.28;;;10.42;76.01
69842;BME280;57138;51.326;-0.068;2023-05-02T00:56:09;100410.00;;;10.39;76.13
69842;BME280;57138;51.326;-0.068;2023-05-02T00:58:35;100413.38;;;10.33;76.14
69842;BME280;57138;51.326;-0.068;2023-05-02T01:10:03;100424.56;;;10.14;76.99
69842;BME280;57138;51.326;-0.068;2023-05-02T01:12:42;100422.41;;;10.09;77.32
69842;BME280;57138;51.326;-0.068;2023-05-02T01:15:15;100422.31;;;10.02;77.08
69842;BME280;57138;51.326;-0.068;2023-05-02T01:17:43;100429.28;;;10.03;76.95
69842;BME280;57138;51.326;-0.068;2023-05-02T01:20:16;100427.00;;;10.00;76.65
69842;BME280;57138;51.326;-0.068;2023-05-02T01:22:44;100427.19;;;9.99;77.05
69842;BME280;57138;51.326;-0.068;2023-05-02T01:30:59;100425.97;;;9.86;77.16
69842;BME280;57138;51.326;-0.068;2023-05-02T01:33:27;100423.16;;;9.80;77.58
69842;BME280;57138;51.326;-0.068;2023-05-02T01:35:54;100430.50;;;9.78;77.73
69842;BME280;57138;51.326;-0.068;2023-05-02T01:38:21;100421.19;;;9.74;78.02
69842;BME280;57138;51.326;-0.068;2023-05-02T01:40:51;100427.72;;;9.71;78.01
69842;BME280;57138;51.326;-0.068;2023-05-02T01:43:17;100425.09;;;9.63;78.39
69842;BME280;57138;51.326;-0.068;2023-05-02T01:45:46;100428.63;;;9.63;78.73
69842;BME280;57138;51.326;-0.068;2023-05-02T01:48:13;100431.94;;;9.65;78.60
69842;BME280;57138;51.326;-0.068;2023-05-02T01:50:40;100433.78;;;9.65;78.15
69842;BME280;57138;51.326;-0.068;2023-05-02T01:53:10;100432.28;;;9.62;78.38
69842;BME280;57138;51.326;-0.068;2023-05-02T01:55:43;100439.28;;;9.63;78.19
69842;BME280;57138;51.326;-0.068;2023-05-02T01:58:10;100432.28;;;9.62;78.31
69842;BME280;57138;51.326;-0.068;2023-05-02T02:00:36;100444.28;;;9.66;78.70
69842;BME280;57138;51.326;-0.068;2023-05-02T02:03:04;100453.28;;;9.65;78.65
69842;BME280;57138;51.326;-0.068;2023-05-02T02:05:31;100451.25;;;9.67;79.03
69842;BME280;57138;51.326;-0.068;2023-05-02T02:07:58;100454.13;;;9.66;79.27
69842;BME280;57138;51.326;-0.068;2023-05-02T02:10:24;100458.09;;;9.70;79.46
69842;BME280;57138;51.326;-0.068;2023-05-02T02:12:53;100451.41;;;9.74;80.15
69842;BME280;57138;51.326;-0.068;2023-05-02T02:15:27;100449.84;;;9.80;80.08
69842;BME280;57138;51.326;-0.068;2023-05-02T02:18:00;100450.47;;;9.90;80.85
69842;BME280;57138;51.326;-0.068;2023-05-02T02:20:28;100464.94;;;9.96;80.85
69842;BME280;57138;51.326;-0.068;2023-05-02T02:22:55;100446.91;;;9.98;82.96
69842;BME280;57138;51.326;-0.068;2023-05-02T02:25:22;100461.34;;;10.03;81.79
69842;BME280;57138;51.326;-0.068;2023-05-02T02:27:48;100469.38;;;10.03;82.14
69842;BME280;57138;51.326;-0.068;2023-05-02T02:30:13;100475.03;;;10.08;82.14
69842;BME280;57138;51.326;-0.068;2023-05-02T02:32:40;100477.16;;;10.13;81.84
69842;BME280;57138;51.326;-0.068;2023-05-02T02:35:06;100475.31;;;10.14;81.80
69842;BME280;57138;51.326;-0.068;2023-05-02T02:37:34;100473.47;;;10.14;82.15
69842;BME280;57138;51.326;-0.068;2023-05-02T02:45:33;100479.75;;;10.21;83.21
69842;BME280;57138;51.326;-0.068;2023-05-02T02:48:34;100485.94;;;10.22;83.74
69842;BME280;57138;51.326;-0.068;2023-05-02T02:51:12;100496.44;;;10.23;83.97
69842;BME280;57138;51.326;-0.068;2023-05-02T02:56:40;100492.22;;;10.29;84.10
69842;BME280;57138;51.326;-0.068;2023-05-02T02:59:14;100487.69;;;10.30;83.72
69842;BME280;57138;51.326;-0.068;2023-05-02T03:01:46;100496.38;;;10.32;83.88
69842;BME280;57138;51.326;-0.068;2023-05-02T03:04:14;100500.56;;;10.34;84.17
69842;BME280;57138;51.326;-0.068;2023-05-02T03:06:40;100495.22;;;10.34;83.82
69842;BME280;57138;51.326;-0.068;2023-05-02T03:09:14;100501.22;;;10.36;84.65
69842;BME280;57138;51.326;-0.068;2023-05-02T03:11:41;100496.88;;;10.35;84.12
69842;BME280;57138;51.326;-0.068;2023-05-02T03:14:06;100501.41;;;10.35;84.11
69842;BME280;57138;51.326;-0.068;2023-05-02T03:16:36;100500.56;;;10.34;84.88
69842;BME280;57138;51.326;-0.068;2023-05-02T03:19:03;100511.75;;;10.38;84.47
69842;BME280;57138;51.326;-0.068;2023-05-02T03:21:29;100517.72;;;10.40;84.74
69842;BME280;57138;51.326;-0.068;2023-05-02T03:24:02;100510.53;;;10.40;84.97
69842;BME280;57138;51.326;-0.068;2023-05-02T03:26:28;100514.22;;;10.39;85.23
69842;BME280;57138;51.326;-0.068;2023-05-02T03:28:54;100513.56;;;10.37;85.24
69842;BME280;57138;51.326;-0.068;2023-05-02T03:31:20;100528.25;;;10.41;85.49
69842;BME280;57138;51.326;-0.068;2023-05-02T03:33:46;100515.88;;;10.40;85.80
69842;BME280;57138;51.326;-0.068;2023-05-02T03:36:12;100528.41;;;10.40;85.79
69842;BME280;57138;51.326;-0.068;2023-05-02T03:38:37;100527.88;;;10.45;85.32
69842;BME280;57138;51.326;-0.068;2023-05-02T03:41:03;100526.56;;;10.40;85.88
69842;BME280;57138;51.326;-0.068;2023-05-02T03:43:29;100528.25;;;10.41;86.13
69842;BME280;57138;51.326;-0.068;2023-05-02T03:45:55;100530.28;;;10.39;85.84
69842;BME280;57138;51.326;-0.068;2023-05-02T03:48:21;100526.94;;;10.37;86.26
69842;BME280;57138;51.326;-0.068;2023-05-02T03:50:49;100529.41;;;10.39;86.20
69842;BME280;57138;51.326;-0.068;2023-05-02T03:53:14;100527.97;;;10.36;86.17
69842;BME280;57138;51.326;-0.068;2023-05-02T03:55:43;100533.94;;;10.38;85.88
69842;BME280;57138;51.326;-0.068;2023-05-02T03:58:10;100529.59;;;10.37;86.21
69842;BME280;57138;51.326;-0.068;2023-05-02T04:00:35;100523.63;;;10.35;86.32
69842;BME280;57138;51.326;-0.068;2023-05-02T04:03:02;100528.13;;;10.35;86.30
69842;BME280;57138;51.326;-0.068;2023-05-02T04:05:28;100535.97;;;10.36;86.52
69842;BME280;57138;51.326;-0.068;2023-05-02T04:07:54;100547.66;;;10.35;86.83
69842;BME280;57138;51.326;-0.068;2023-05-02T04:10:19;100551.66;;;10.39;86.89
69842;BME280;57138;51.326;-0.068;2023-05-02T04:12:45;100553.31;;;10.40;86.72
69842;BME280;57138;51.326;-0.068;2023-05-02T04:15:10;100552.66;;;10.38;86.36
69842;BME280;57138;51.326;-0.068;2023-05-02T04:17:36;100551.66;;;10.39;86.81
69842;BME280;57138;51.326;-0.068;2023-05-02T04:20:02;100556.31;;;10.37;86.96
69842;BME280;57138;51.326;-0.068;2023-05-02T04:22:29;100554.34;;;10.39;86.73
69842;BME280;57138;51.326;-0.068;2023-05-02T04:24:54;100551.31;;;10.42;87.15
69842;BME280;57138;51.326;-0.068;2023-05-02T04:27:20;100554.97;;;10.41;87.19
69842;BME280;57138;51.326;-0.068;2023-05-02T04:29:49;100541.78;;;10.40;86.64
69842;BME280;57138;51.326;-0.068;2023-05-02T04:32:15;100546.94;;;10.41;87.16
69842;BME280;57138;51.326;-0.068;2023-05-02T04:34:41;100553.31;;;10.40;87.26
69842;BME280;57138;51.326;-0.068;2023-05-02T04:37:06;100552.84;;;10.37;87.49
69842;BME280;57138;51.326;-0.068;2023-05-02T04:39:32;100549.34;;;10.36;87.30
69842;BME280;57138;51.326;-0.068;2023-05-02T04:41:58;100554.69;;;10.36;87.52
69842;BME280;57138;51.326;-0.068;2023-05-02T04:44:23;100562.72;;;10.36;87.45
69842;BME280;57138;51.326;-0.068;2023-05-02T04:46:49;100568.06;;;10.36;87.38
69842;BME280;57138;51.326;-0.068;2023-05-02T04:49:14;100579.75;;;10.35;87.75
69842;BME280;57138;51.326;-0.068;2023-05-02T04:51:39;100582.25;;;10.37;88.42
69842;BME280;57138;51.326;-0.068;2023-05-02T04:54:05;100586.75;;;10.36;88.12
69842;BME280;57138;51.326;-0.068;2023-05-02T04:56:31;100585.56;;;10.39;88.23
69842;BME280;57138;51.326;-0.068;2023-05-02T04:58:56;100587.41;;;10.38;87.93
69842;BME280;57138;51.326;-0.068;2023-05-02T05:01:21;100590.53;;;10.42;87.87
69842;BME280;57138;51.326;-0.068;2023-05-02T05:03:48;100597.91;;;10.40;88.05
69842;BME280;57138;51.326;-0.068;2023-05-02T05:06:14;100596.91;;;10.41;87.99
69842;BME280;57138;51.326;-0.068;2023-05-02T05:08:40;100608.09;;;10.45;88.15
69842;BME280;57138;51.326;-0.068;2023-05-02T05:11:05;100608.44;;;10.41;88.12
69842;BME280;57138;51.326;-0.068;2023-05-02T05:13:30;100604.75;;;10.42;88.52
69842;BME280;57138;51.326;-0.068;2023-05-02T05:15:56;100610.47;;;10.39;88.24
69842;BME280;57138;51.326;-0.068;2023-05-02T05:18:21;100621.44;;;10.45;88.61
69842;BME280;57138;51.326;-0.068;2023-05-02T05:20:47;100609.09;;;10.43;88.66
69842;BME280;57138;51.326;-0.068;2023-05-02T05:23:13;100616.63;;;10.40;88.65
69842;BME280;57138;51.326;-0.068;2023-05-02T05:25:38;100619.47;;;10.38;88.60
69842;BME280;57138;51.326;-0.068;2023-05-02T05:28:04;100621.16;;;10.39;88.64
69842;BME280;57138;51.326;-0.068;2023-05-02T05:30:29;100623.16;;;10.37;88.59
69842;BME280;57138;51.326;-0.068;2023-05-02T05:32:55;100627.69;;;10.37;88.36
69842;BME280;57138;51.326;-0.068;2023-05-02T05:35:23;100637.91;;;10.33;88.71
69842;BME280;57138;51.326;-0.068;2023-05-02T05:37:49;100645.22;;;10.31;88.67
69842;BME280;57138;51.326;-0.068;2023-05-02T05:40:14;100645.56;;;10.28;88.97
69842;BME280;57138;51.326;-0.068;2023-05-02T05:42:40;100643.91;;;10.27;88.90
69842;BME280;57138;51.326;-0.068;2023-05-02T05:45:06;100648.41;;;10.26;88.46
69842;BME280;57138;51.326;-0.068;2023-05-02T05:47:32;100654.97;;;10.24;88.27
69842;BME280;57138;51.326;-0.068;2023-05-02T05:49:57;100658.97;;;10.20;88.21
69842;BME280;57138;51.326;-0.068;2023-05-02T05:52:22;100661.00;;;10.18;88.33
69842;BME280;57138;51.326;-0.068;2023-05-02T05:54:48;100670.03;;;10.17;88.25
69842;BME280;57138;51.326;-0.068;2023-05-02T05:57:13;100677.03;;;10.18;88.55
69842;BME280;57138;51.326;-0.068;2023-05-02T05:59:39;100679.03;;;10.16;88.14
69842;BME280;57138;51.326;-0.068;2023-05-02T06:02:04;100674.72;;;10.06;88.17
69842;BME280;57138;51.326;-0.068;2023-05-02T06:04:30;100679.59;;;10.03;88.45
69842;BME280;57138;51.326;-0.068;2023-05-02T06:06:55;100684.13;;;10.02;88.59
69842;BME280;57138;51.326;-0.068;2023-05-02T06:09:20;100695.44;;;10.04;88.29
69842;BME280;57138;51.326;-0.068;2023-05-02T06:11:46;100696.44;;;10.03;88.62
69842;BME280;57138;51.326;-0.068;2023-05-02T06:14:11;100695.63;;;10.03;88.41
69842;BME280;57138;51.326;-0.068;2023-05-02T06:16:37;100691.09;;;10.03;88.33
69842;BME280;57138;51.326;-0.068;2023-05-02T06:19:02;100698.47;;;10.01;88.60
69842;BME280;57138;51.326;-0.068;2023-05-02T06:21:28;100696.81;;;10.00;88.43
69842;BME280;57138;51.326;-0.068;2023-05-02T06:23:53;100707.50;;;10.00;88.63
69842;BME280;57138;51.326;-0.068;2023-05-02T06:26:19;100709.50;;;9.98;88.21
69842;BME280;57138;51.326;-0.068;2023-05-02T06:28:45;100707.50;;;10.00;88.33
69842;BME280;57138;51.326;-0.068;2023-05-02T06:31:11;100710.19;;;10.00;88.49
69842;BME280;57138;51.326;-0.068;2023-05-02T06:33:36;100704.63;;;10.02;88.59
69842;BME280;57138;51.326;-0.068;2023-05-02T06:36:02;100705.50;;;10.02;88.00
69842;BME280;57138;51.326;-0.068;2023-05-02T06:38:27;100714.16;;;10.04;88.53
69842;BME280;57138;51.326;-0.068;2023-05-02T06:40:53;100712.97;;;10.07;88.24
69842;BME280;57138;51.326;-0.068;2023-05-02T06:43:19;100712.81;;;10.08;88.43
69842;BME280;57138;51.326;-0.068;2023-05-02T06:45:45;100712.13;;;10.06;88.49
69842;BME280;57138;51.326;-0.068;2023-05-02T06:48:10;100704.78;;;10.08;88.47
69842;BME280;57138;51.326;-0.068;2023-05-02T06:50:36;100718.16;;;10.08;88.37
69842;BME280;57138;51.326;-0.068;2023-05-02T06:53:03;100726.00;;;10.10;88.23
69842;BME280;57138;51.326;-0.068;2023-05-02T06:55:29;100720.47;;;10.12;88.07
69842;BME280;57138;51.326;-0.068;2023-05-02T06:57:55;100726.16;;;10.08;88.24
69842;BME280;57138;51.326;-0.068;2023-05-02T07:00:20;100726.34;;;10.07;88.45
69842;BME280;57138;51.326;-0.068;2023-05-02T07:02:47;100728.50;;;10.03;88.54
69842;BME280;57138;51.326;-0.068;2023-05-02T07:05:13;100730.66;;;10.08;88.34
69842;BME280;57138;51.326;-0.068;2023-05-02T07:07:42;100726.88;;;10.02;88.17
69842;BME280;57138;51.326;-0.068;2023-05-02T07:10:08;100731.56;;;10.00;87.98
69842;BME280;57138;51.326;-0.068;2023-05-02T07:12:33;100727.56;;;9.96;87.96
69842;BME280;57138;51.326;-0.068;2023-05-02T07:14:59;100733.22;;;9.93;88.22
69842;BME280;57138;51.326;-0.068;2023-05-02T07:17:24;100741.06;;;9.95;88.47
69842;BME280;57138;51.326;-0.068;2023-05-02T07:19:50;100741.91;;;9.95;88.39
69842;BME280;57138;51.326;-0.068;2023-05-02T07:22:15;100743.91;;;9.93;88.38
69842;BME280;57138;51.326;-0.068;2023-05-02T07:24:41;100755.09;;;9.97;88.90
69842;BME280;57138;51.326;-0.068;2023-05-02T07:27:11;100750.59;;;9.97;88.78
69842;BME280;57138;51.326;-0.068;2023-05-02T07:29:37;100750.59;;;9.97;88.54
69842;BME280;57138;51.326;-0.068;2023-05-02T07:32:03;100763.09;;;9.97;88.20
69842;BME280;57138;51.326;-0.068;2023-05-02T07:34:29;100750.09;;;9.94;88.25
69842;BME280;57138;51.326;-0.068;2023-05-02T07:36:55;100751.59;;;9.96;88.35
69842;BME280;57138;51.326;-0.068;2023-05-02T07:39:21;100747.75;;;9.99;88.44
69842;BME280;57138;51.326;-0.068;2023-05-02T07:41:50;100761.59;;;10.02;88.26
69842;BME280;57138;51.326;-0.068;2023-05-02T07:44:16;100760.56;;;10.03;87.91
69842;BME280;57138;51.326;-0.068;2023-05-02T07:46:41;100758.56;;;10.05;88.46
69842;BME280;57138;51.326;-0.068;2023-05-02T07:49:07;100757.38;;;10.08;88.12
69842;BME280;57138;51.326;-0.068;2023-05-02T07:51:32;100763.88;;;10.14;87.89
69842;BME280;57138;51.326;-0.068;2023-05-02T07:53:58;100764.19;;;10.19;87.54
69842;BME280;57138;51.326;-0.068;2023-05-02T07:56:24;100762.19;;;10.21;87.70
69842;BME280;57138;51.326;-0.068;2023-05-02T07:58:49;100766.69;;;10.29;87.84
69842;BME280;57138;51.326;-0.068;2023-05-02T08:01:18;100773.19;;;10.34;87.24
69842;BME280;57138;51.326;-0.068;2023-05-02T08:03:44;100766.19;;;10.33;86.74
69842;BME280;57138;51.326;-0.068;2023-05-02T08:06:10;100775.53;;;10.29;86.15
69842;BME280;57138;51.326;-0.068;2023-05-02T08:08:37;100770.22;;;10.21;86.26
69842;BME280;57138;51.326;-0.068;2023-05-02T08:11:02;100774.53;;;10.22;86.09
69842;BME280;57138;51.326;-0.068;2023-05-02T08:13:28;100763.84;;;10.22;86.48
69842;BME280;57138;51.326;-0.068;2023-05-02T08:15:53;100766.84;;;10.27;86.63
69842;BME280;57138;51.326;-0.068;2023-05-02T08:18:26;100771.00;;;10.30;86.52
69842;BME280;57138;51.326;-0.068;2023-05-02T08:20:53;100769.19;;;10.30;86.04
69842;BME280;57138;51.326;-0.068;2023-05-02T08:23:23;100770.19;;;10.29;86.03
69842;BME280;57138;51.326;-0.068;2023-05-02T08:25:48;100777.19;;;10.30;85.42
69842;BME280;57138;51.326;-0.068;2023-05-02T08:28:14;100764.50;;;10.32;85.17
69842;BME280;57138;51.326;-0.068;2023-05-02T08:30:39;100765.00;;;10.36;85.34
69842;BME280;57138;51.326;-0.068;2023-05-02T08:33:04;100768.47;;;10.45;85.42
69842;BME280;57138;51.326;-0.068;2023-05-02T08:35:30;100764.47;;;10.49;85.00
69842;BME280;57138;51.326;-0.068;2023-05-02T08:37:55;100767.09;;;10.57;84.51
69842;BME280;57138;51.326;-0.068;2023-05-02T08:40:21;100776.41;;;10.61;84.31
69842;BME280;57138;51.326;-0.068;2023-05-02T08:42:47;100764.34;;;10.65;83.75
69842;BME280;57138;51.326;-0.068;2023-05-02T08:45:13;100772.84;;;10.69;83.99
69842;BME280;57138;51.326;-0.068;2023-05-02T08:47:40;100794.56;;;10.74;82.74
69842;BME280;57138;51.326;-0.068;2023-05-02T08:50:07;100793.72;;;10.73;82.53
69842;BME280;57138;51.326;-0.068;2023-05-02T08:52:35;100786.03;;;10.78;82.11
69842;BME280;57138;51.326;-0.068;2023-05-02T08:55:02;100782.31;;;10.79;82.68
69842;BME280;57138;51.326;-0.068;2023-05-02T08:57:28;100788.66;;;10.87;82.61
69842;BME280;57138;51.326;-0.068;2023-05-02T08:59:55;100798.28;;;10.96;82.35
69842;BME280;57138;51.326;-0.068;2023-05-02T09:05:06;100808.88;;;11.12;81.08
69842;BME280;57138;51.326;-0.068;2023-05-02T09:07:45;100809.19;;;11.18;80.09
69842;BME280;57138;51.326;-0.068;2023-05-02T09:10:12;100813.03;;;11.15;80.14
69842;BME280;57138;51.326;-0.068;2023-05-02T09:12:37;100808.16;;;11.19;80.54
69842;BME280;57138;51.326;-0.068;2023-05-02T09:15:11;100816.16;;;11.27;79.85
69842;BME280;57138;51.326;-0.068;2023-05-02T09:17:45;100823.84;;;11.30;78.97
69842;BME280;57138;51.326;-0.068;2023-05-02T09:20:14;100817.44;;;11.31;78.43
69842;BME280;57138;51.326;-0.068;2023-05-02T09:22:51;100832.78;;;11.37;78.15
69842;BME280;57138;51.326;-0.068;2023-05-02T09:25:19;100828.75;;;11.41;77.74
69842;BME280;57138;51.326;-0.068;2023-05-02T09:27:52;100836.72;;;11.49;77.61
69842;BME280;57138;51.326;-0.068;2023-05-02T09:30:21;100842.22;;;11.56;77.56
69842;BME280;57138;51.326;-0.068;2023-05-02T09:32:48;100836.59;;;11.66;77.34
69842;BME280;57138;51.326;-0.068;2023-05-02T09:35:17;100845.19;;;11.76;77.01
69842;BME280;57138;51.326;-0.068;2023-05-02T09:37:55;100844.13;;;11.85;76.22
69842;BME280;57138;51.326;-0.068;2023-05-02T09:40:21;100849.28;;;11.95;75.70
69842;BME280;57138;51.326;-0.068;2023-05-02T09:42:48;100855.69;;;12.09;75.11
69842;BME280;57138;51.326;-0.068;2023-05-02T09:45:24;100854.91;;;12.15;73.77
69842;BME280;57138;51.326;-0.068;2023-05-02T09:47:52;100862.03;;;12.23;74.68
69842;BME280;57138;51.326;-0.068;2023-05-02T09:53:07;100855.03;;;12.37;72.64
69842;BME280;57138;51.326;-0.068;2023-05-02T09:55:34;100859.19;;;12.39;72.71
69842;BME280;57138;51.326;-0.068;2023-05-02T09:58:00;100861.69;;;12.41;72.49
69842;BME280;57138;51.326;-0.068;2023-05-02T10:00:42;100858.09;;;12.49;71.52
69842;BME280;57138;51.326;-0.068;2023-05-02T10:03:09;100861.41;;;12.51;72.06
69842;BME280;57138;51.326;-0.068;2023-05-02T10:05:39;100867.63;;;12.51;71.14
69842;BME280;57138;51.326;-0.068;2023-05-02T10:08:08;100856.34;;;12.56;71.39
69842;BME280;57138;51.326;-0.068;2023-05-02T10:10:49;100849.56;;;12.60;70.35
69842;BME280;57138;51.326;-0.068;2023-05-02T10:13:16;100851.13;;;12.69;71.13
69842;BME280;57138;51.326;-0.068;2023-05-02T10:15:45;100847.50;;;12.77;71.07
69842;BME280;57138;51.326;-0.068;2023-05-02T10:18:20;100854.00;;;12.83;67.56
69842;BME280;57138;51.326;-0.068;2023-05-02T10:20:56;100852.13;;;12.83;68.66
69842;BME280;57138;51.326;-0.068;2023-05-02T10:23:32;100846.66;;;12.91;69.09
69842;BME280;57138;51.326;-0.068;2023-05-02T10:25:59;100838.88;;;12.97;69.10
69842;BME280;57138;51.326;-0.068;2023-05-02T10:28:26;100842.06;;;13.07;69.28
69842;BME280;57138;51.326;-0.068;2023-05-02T10:30:53;100840.06;;;13.09;69.12
69842;BME280;57138;51.326;-0.068;2023-05-02T10:33:21;100842.81;;;13.16;68.44
69842;BME280;57138;51.326;-0.068;2023-05-02T10:35:48;100849.63;;;13.18;67.99
69842;BME280;57138;51.326;-0.068;2023-05-02T10:38:20;100841.56;;;13.18;67.82
69842;BME280;57138;51.326;-0.068;2023-05-02T10:40:57;100842.03;;;13.22;68.44
69842;BME280;57138;51.326;-0.068;2023-05-02T10:43:27;100848.69;;;13.26;68.80
69842;BME280;57138;51.326;-0.068;2023-05-02T10:45:54;100863.88;;;13.34;68.37
69842;BME280;57138;51.326;-0.068;2023-05-02T10:48:25;100871.53;;;13.37;67.78
69842;BME280;57138;51.326;-0.068;2023-05-02T10:50:53;100871.94;;;13.34;67.24
69842;BME280;57138;51.326;-0.068;2023-05-02T10:58:39;100877.19;;;13.27;67.43
69842;BME280;57138;51.326;-0.068;2023-05-02T11:03:57;100886.47;;;13.24;66.69
69842;BME280;57138;51.326;-0.068;2023-05-02T11:06:25;100885.44;;;13.25;67.83
69842;BME280;57138;51.326;-0.068;2023-05-02T11:08:51;100892.13;;;13.29;67.51
69842;BME280;57138;51.326;-0.068;2023-05-02T11:11:41;100901.75;;;13.39;67.32
69842;BME280;57138;51.326;-0.068;2023-05-02T11:14:08;100894.31;;;13.41;66.53
69842;BME280;57138;51.326;-0.068;2023-05-02T11:24:47;100894.53;;;13.61;66.12
69842;BME280;57138;51.326;-0.068;2023-05-02T11:30:01;100892.53;;;13.70;66.12
69842;BME280;57138;51.326;-0.068;2023-05-02T11:35:20;100889.44;;;13.94;65.89
69842;BME280;57138;51.326;-0.068;2023-05-02T11:38:11;100883.00;;;14.17;64.53
69842;BME280;57138;51.326;-0.068;2023-05-02T11:40:37;100875.28;;;14.35;64.74
69842;BME280;57138;51.326;-0.068;2023-05-02T11:43:14;100873.03;;;14.46;64.00
69842;BME280;57138;51.326;-0.068;2023-05-02T11:45:40;100878.28;;;14.54;63.77
69842;BME280;57138;51.326;-0.068;2023-05-02T11:48:10;100877.53;;;14.60;62.99
69842;BME280;57138;51.326;-0.068;2023-05-02T11:50:49;100882.50;;;14.63;62.54
69842;BME280;57138;51.326;-0.068;2023-05-02T11:53:18;100877.53;;;14.60;62.25
69842;BME280;57138;51.326;-0.068;2023-05-02T11:55:48;100882.41;;;14.56;62.35
69842;BME280;57138;51.326;-0.068;2023-05-02T11:58:24;100882.03;;;14.60;62.17
69842;BME280;57138;51.326;-0.068;2023-05-02T12:00:53;100891.59;;;14.62;62.89
69842;BME280;57138;51.326;-0.068;2023-05-02T12:03:19;100889.13;;;14.67;62.18
69842;BME280;57138;51.326;-0.068;2023-05-02T12:05:46;100901.78;;;14.73;62.86
69842;BME280;57138;51.326;-0.068;2023-05-02T12:08:20;100898.94;;;14.82;62.10
69842;BME280;57138;51.326;-0.068;2023-05-02T12:10:46;100895.00;;;14.84;62.77
69842;BME280;57138;51.326;-0.068;2023-05-02T12:13:11;100900.41;;;14.91;61.43
69842;BME280;57138;51.326;-0.068;2023-05-02T12:15:37;100905.81;;;14.91;61.69
69842;BME280;57138;51.326;-0.068;2023-05-02T12:18:02;100902.09;;;14.92;62.21
69842;BME280;57138;51.326;-0.068;2023-05-02T12:20:28;100897.53;;;14.92;61.31
69842;BME280;57138;51.326;-0.068;2023-05-02T12:22:54;100905.84;;;14.98;61.91
69842;BME280;57138;51.326;-0.068;2023-05-02T12:25:21;100905.47;;;15.07;62.31
69842;BME280;57138;51.326;-0.068;2023-05-02T12:28:02;100915.66;;;15.19;60.19
69842;BME280;57138;51.326;-0.068;2023-05-02T12:30:29;100911.75;;;15.21;61.05
69842;BME280;57138;51.326;-0.068;2023-05-02T12:32:56;100913.38;;;15.16;60.70
69842;BME280;57138;51.326;-0.068;2023-05-02T12:35:26;100911.72;;;15.15;61.26
69842;BME280;57138;51.326;-0.068;2023-05-02T12:37:52;100915.03;;;15.17;60.62
69842;BME280;57138;51.326;-0.068;2023-05-02T12:40:21;100917.94;;;15.15;60.33
69842;BME280;57138;51.326;-0.068;2023-05-02T12:43:00;100912.97;;;15.19;59.91
69842;BME280;57138;51.326;-0.068;2023-05-02T12:45:31;100913.38;;;15.16;59.47
69842;BME280;57138;51.326;-0.068;2023-05-02T12:48:01;100908.78;;;15.09;59.89
69842;BME280;57138;51.326;-0.068;2023-05-02T12:50:39;100918.75;;;15.09;60.14
69842;BME280;57138;51.326;-0.068;2023-05-02T12:53:05;100906.69;;;15.05;60.97
69842;BME280;57138;51.326;-0.068;2023-05-02T12:55:31;100914.97;;;15.03;59.51
69842;BME280;57138;51.326;-0.068;2023-05-02T12:58:03;100919.75;;;15.01;60.14
69842;BME280;57138;51.326;-0.068;2023-05-02T13:00:30;100913.09;;;14.97;60.15
69842;BME280;57138;51.326;-0.068;2023-05-02T13:02:56;100919.13;;;14.99;60.50
69842;BME280;57138;51.326;-0.068;2023-05-02T13:05:22;100916.66;;;15.04;60.45
69842;BME280;57138;51.326;-0.068;2023-05-02T13:07:48;100918.31;;;15.05;59.89
69842;BME280;57138;51.326;-0.068;2023-05-02T13:10:13;100920.34;;;15.03;59.53
69842;BME280;57138;51.326;-0.068;2023-05-02T13:12:42;100911.66;;;14.95;59.20
69842;BME280;57138;51.326;-0.068;2023-05-02T13:15:11;100918.25;;;14.92;59.74
69842;BME280;57138;51.326;-0.068;2023-05-02T13:17:36;100926.13;;;14.94;59.81
69842;BME280;57138;51.326;-0.068;2023-05-02T13:20:02;100919.47;;;14.89;59.64
69842;BME280;57138;51.326;-0.068;2023-05-02T13:22:28;100928.22;;;14.98;59.65
69842;BME280;57138;51.326;-0.068;2023-05-02T13:24:53;100923.22;;;14.95;59.15
69842;BME280;57138;51.326;-0.068;2023-05-02T13:27:21;100917.84;;;14.95;59.42
69842;BME280;57138;51.326;-0.068;2023-05-02T13:29:50;100922.00;;;14.98;60.48
69842;BME280;57138;51.326;-0.068;2023-05-02T13:32:16;100912.88;;;14.99;60.23